createdAt,value
2023-04-12T00:01:31.060Z,99828.53
2023-04-12T00:03:59.141Z,99832.77
2023-04-12T00:06:32.582Z,99819.20
2023-04-12T00:09:01.939Z,99790.87
2023-04-12T00:11:32.145Z,99770.01
2023-04-12T00:13:59.919Z,99768.13
2023-04-12T00:16:27.798Z,99777.27
2023-04-12T00:18:57.475Z,99787.93
2023-04-12T00:21:28.940Z,99790.30
2023-04-12T00:23:57.346Z,99792.65
2023-04-12T00:26:25.999Z,99788.05
2023-04-12T00:28:53.705Z,99777.87
2023-04-12T00:31:21.791Z,99776.67
2023-04-12T00:33:49.803Z,99779.88
2023-04-12T00:36:17.902Z,99784.45
2023-04-12T00:38:46.247Z,99786.30
2023-04-12T00:41:14.725Z,99785.80
2023-04-12T00:43:42.482Z,99790.21
2023-04-12T00:46:12.454Z,99784.62
2023-04-12T00:48:40.717Z,99782.76
2023-04-12T00:51:09.078Z,99781.39
2023-04-12T00:53:38.371Z,99784.79
2023-04-12T00:56:07.787Z,99788.17
2023-04-12T00:58:36.282Z,99784.95
2023-04-12T01:01:04.141Z,99780.72
2023-04-12T01:03:32.190Z,99777.34
2023-04-12T01:06:16.462Z,99775.80
2023-04-12T01:09:13.033Z,99776.14
2023-04-12T01:12:16.885Z,99779.85
2023-04-12T01:14:57.043Z,99772.89
2023-04-12T01:17:38.076Z,99775.79
2023-04-12T01:20:16.915Z,99776.44
2023-04-12T01:22:59.958Z,99781.19
2023-04-12T01:25:46.005Z,99780.35
2023-04-12T01:28:24.076Z,99779.01
2023-04-12T01:30:53.452Z,99781.37
2023-04-12T01:33:23.265Z,99782.38
2023-04-12T01:35:53.241Z,99780.02
2023-04-12T01:38:21.914Z,99777.64
2023-04-12T01:40:49.830Z,99773.06
2023-04-12T01:43:18.352Z,99777.64
2023-04-12T01:45:46.300Z,99775.94
2023-04-12T01:48:14.330Z,99767.29
2023-04-12T01:51:01.553Z,99765.94
2023-04-12T01:53:43.618Z,99767.78
2023-04-12T01:56:12.569Z,99766.44
2023-04-12T01:58:43.813Z,99766.77
2023-04-12T02:01:15.573Z,99765.92
2023-04-12T02:03:45.195Z,99764.40
2023-04-12T02:06:13.905Z,99762.89
2023-04-12T02:08:41.686Z,99760.84
2023-04-12T02:11:11.156Z,99766.42
2023-04-12T02:13:38.929Z,99767.78
2023-04-12T02:16:10.964Z,99769.33
2023-04-12T02:18:41.793Z,99771.88
2023-04-12T02:21:09.562Z,99770.70
2023-04-12T02:23:37.316Z,99766.46
2023-04-12T02:26:05.179Z,99765.45
2023-04-12T02:28:34.787Z,99764.92
2023-04-12T02:31:02.802Z,99762.23
2023-04-12T02:33:30.884Z,99757.31
2023-04-12T02:35:59.487Z,99755.11
2023-04-12T02:38:27.277Z,99754.27
2023-04-12T02:40:56.163Z,99755.96
2023-04-12T02:43:23.928Z,99758.17
2023-04-12T02:45:51.748Z,99759.36
2023-04-12T02:48:19.711Z,99757.15
2023-04-12T02:50:47.464Z,99757.33
2023-04-12T02:53:16.549Z,99761.72
2023-04-12T02:55:44.808Z,99762.74
2023-04-12T02:58:12.978Z,99760.70
2023-04-12T03:00:42.610Z,99763.58
2023-04-12T03:03:10.482Z,99767.98
2023-04-12T03:05:39.882Z,99766.48
2023-04-12T03:08:07.744Z,99761.21
2023-04-12T03:10:35.730Z,99759.70
2023-04-12T03:13:05.060Z,99763.77
2023-04-12T03:15:32.936Z,99762.90
2023-04-12T03:18:00.873Z,99769.01
2023-04-12T03:20:29.043Z,99768.67
2023-04-12T03:22:56.885Z,99771.73
2023-04-12T03:25:24.643Z,99773.77
2023-04-12T03:27:52.832Z,99771.73
2023-04-12T03:30:20.582Z,99776.32
2023-04-12T03:32:48.381Z,99781.23
2023-04-12T03:35:16.355Z,99782.75
2023-04-12T03:37:44.197Z,99780.55
2023-04-12T03:40:12.758Z,99782.91
2023-04-12T03:42:40.624Z,99784.61
2023-04-12T03:45:09.213Z,99785.63
2023-04-12T03:47:37.335Z,99786.65
2023-04-12T03:50:11.498Z,99784.96
2023-04-12T03:52:40.431Z,99784.27
2023-04-12T03:55:08.922Z,99786.31
2023-04-12T03:57:36.854Z,99786.48
2023-04-12T04:00:06.514Z,99787.31
2023-04-12T04:02:34.909Z,99788.17
2023-04-12T04:05:04.201Z,99788.85
2023-04-12T04:07:32.293Z,99787.16
2023-04-12T04:10:00.265Z,99781.21
2023-04-12T04:12:28.229Z,99780.02
2023-04-12T04:14:56.095Z,99778.16
2023-04-12T04:17:23.964Z,99778.67
2023-04-12T04:19:51.930Z,99783.92
2023-04-12T04:22:21.783Z,99780.88
2023-04-12T04:24:50.430Z,99781.04
2023-04-12T04:27:20.660Z,99779.01
2023-04-12T04:29:48.410Z,99785.45
2023-04-12T04:32:16.276Z,99787.13
2023-04-12T04:34:44.970Z,99790.88
2023-04-12T04:37:13.439Z,99794.95
2023-04-12T04:39:41.154Z,99793.94
2023-04-12T04:42:09.796Z,99792.92
2023-04-12T04:44:37.653Z,99788.52
2023-04-12T04:47:08.792Z,99789.36
2023-04-12T04:49:39.502Z,99793.80
2023-04-12T04:52:08.739Z,99793.80
2023-04-12T04:54:36.558Z,99793.46
2023-04-12T04:57:08.038Z,99788.39
2023-04-12T04:59:35.876Z,99792.48
2023-04-12T05:02:04.090Z,99793.67
2023-04-12T05:04:32.438Z,99795.20
2023-04-12T05:07:00.600Z,99798.10
2023-04-12T05:09:28.458Z,99800.64
2023-04-12T05:11:56.326Z,99801.48
2023-04-12T05:14:24.188Z,99802.01
2023-04-12T05:16:52.286Z,99805.92
2023-04-12T05:19:21.080Z,99809.99
2023-04-12T05:21:48.915Z,99809.83
2023-04-12T05:24:16.676Z,99812.71
2023-04-12T05:26:45.463Z,99813.58
2023-04-12T05:29:13.203Z,99813.05
2023-04-12T05:31:41.017Z,99811.03
2023-04-12T05:34:08.861Z,99814.24
2023-04-12T05:36:36.820Z,99815.95
2023-04-12T05:39:04.692Z,99820.36
2023-04-12T05:41:32.552Z,99824.96
2023-04-12T05:44:00.423Z,99824.45
2023-04-12T05:46:28.348Z,99827.86
2023-04-12T05:48:56.779Z,99828.54
2023-04-12T05:51:37.810Z,99828.02
2023-04-12T05:54:09.342Z,99828.72
2023-04-12T05:56:37.833Z,99828.54
2023-04-12T05:59:05.640Z,99829.90
2023-04-12T06:01:34.418Z,99829.06
2023-04-12T06:04:06.188Z,99830.91
2023-04-12T06:06:34.672Z,99829.90
2023-04-12T06:09:04.889Z,99827.52
2023-04-12T06:11:35.424Z,99828.38
2023-04-12T06:14:03.217Z,99829.90
2023-04-12T06:16:31.334Z,99828.88
2023-04-12T06:18:59.573Z,99828.04
2023-04-12T06:21:27.900Z,99826.67
2023-04-12T06:23:55.969Z,99825.83
2023-04-12T06:26:23.764Z,99822.45
2023-04-12T06:28:51.593Z,99819.91
2023-04-12T06:31:19.441Z,99819.40
2023-04-12T06:33:47.835Z,99815.84
2023-04-12T06:36:16.364Z,99816.70
2023-04-12T06:38:44.503Z,99815.01
2023-04-12T06:41:12.454Z,99822.64
2023-04-12T06:43:40.341Z,99821.45
2023-04-12T06:46:09.221Z,99820.44
2023-04-12T06:48:37.075Z,99819.92
2023-04-12T06:51:05.654Z,99818.58
2023-04-12T06:53:35.228Z,99819.25
2023-04-12T06:56:06.425Z,99818.40
2023-04-12T06:58:34.265Z,99820.42
2023-04-12T07:01:10.270Z,99819.42
2023-04-12T07:03:39.095Z,99820.60
2023-04-12T07:06:17.748Z,99821.79
2023-04-12T07:08:49.898Z,99821.10
2023-04-12T07:11:21.431Z,99826.03
2023-04-12T07:13:51.276Z,99826.55
2023-04-12T07:16:19.464Z,99828.42
2023-04-12T07:18:47.762Z,99825.54
2023-04-12T07:21:17.733Z,99824.52
2023-04-12T07:23:46.953Z,99824.86
2023-04-12T07:26:14.751Z,99825.69
2023-04-12T07:28:42.674Z,99821.27
2023-04-12T07:31:10.848Z,99825.51
2023-04-12T07:33:41.433Z,99826.35
2023-04-12T07:36:12.109Z,99828.05
2023-04-12T07:38:40.057Z,99825.83
2023-04-12T07:41:08.101Z,99820.54
2023-04-12T07:43:36.096Z,99820.20
2023-04-12T07:46:07.949Z,99822.56
2023-04-12T07:48:35.821Z,99825.09
2023-04-12T07:51:04.267Z,99825.91
2023-04-12T07:53:32.207Z,99825.38
2023-04-12T07:56:00.198Z,99826.36
2023-04-12T07:58:28.042Z,99828.71
2023-04-12T08:00:58.074Z,99824.95
2023-04-12T08:03:28.424Z,99826.95
2023-04-12T08:05:56.772Z,99829.13
2023-04-12T08:08:25.269Z,99832.98
2023-04-12T08:10:53.375Z,99829.88
2023-04-12T08:13:21.549Z,99831.20
2023-04-12T08:15:49.674Z,99823.50
2023-04-12T08:18:17.698Z,99820.77
2023-04-12T08:20:45.652Z,99816.77
2023-04-12T08:23:13.622Z,99815.02
2023-04-12T08:25:41.839Z,99814.83
2023-04-12T08:28:09.698Z,99818.90
2023-04-12T08:30:37.625Z,99822.30
2023-04-12T08:33:05.760Z,99817.67
2023-04-12T08:35:34.208Z,99821.52
2023-04-12T08:38:08.179Z,99819.82
2023-04-12T08:40:36.102Z,99822.17
2023-04-12T08:43:08.666Z,99830.73
2023-04-12T08:45:37.727Z,99838.98
2023-04-12T08:48:06.432Z,99842.74
2023-04-12T08:50:34.539Z,99846.02
2023-04-12T08:53:03.158Z,99845.18
2023-04-12T08:55:31.133Z,99839.88
2023-04-12T08:57:59.386Z,99842.40
2023-04-12T09:00:27.626Z,99841.05
2023-04-12T09:02:55.607Z,99838.17
2023-04-12T09:05:31.392Z,99834.77
2023-04-12T09:07:59.590Z,99831.19
2023-04-12T09:10:33.585Z,99826.60
2023-04-12T09:13:01.722Z,99822.86
2023-04-12T09:15:30.429Z,99812.96
2023-04-12T09:18:09.566Z,99813.57
2023-04-12T09:20:39.254Z,99808.75
2023-04-12T09:23:21.531Z,99806.42
2023-04-12T09:25:52.782Z,99802.41
2023-04-12T09:28:22.042Z,99802.41
2023-04-12T09:30:52.002Z,99803.65
2023-04-12T09:33:22.297Z,99802.70
2023-04-12T09:35:51.364Z,99802.13
2023-04-12T09:38:19.439Z,99797.02
2023-04-12T09:40:47.800Z,99793.25
2023-04-12T09:43:16.233Z,99786.25
2023-04-12T09:45:44.263Z,99781.05
2023-04-12T09:48:21.196Z,99777.09
2023-04-12T09:50:58.426Z,99780.76
2023-04-12T09:53:26.605Z,99785.16
2023-04-12T09:55:56.625Z,99791.31
2023-04-12T09:58:25.912Z,99793.73
2023-04-12T10:00:56.790Z,99796.61
2023-04-12T10:03:25.317Z,99798.80
2023-04-12T10:05:55.276Z,99797.31
2023-04-12T10:08:23.568Z,99797.72
2023-04-12T10:10:53.635Z,99797.70
2023-04-12T10:13:23.881Z,99793.92
2023-04-12T10:15:53.826Z,99790.64
2023-04-12T10:18:23.820Z,99793.67
2023-04-12T10:20:52.065Z,99796.98
2023-04-12T10:23:20.212Z,99793.90
2023-04-12T10:25:49.183Z,99794.77
2023-04-12T10:28:19.677Z,99794.42
2023-04-12T10:30:49.827Z,99794.73
2023-04-12T10:33:30.925Z,99798.48
2023-04-12T10:36:00.825Z,99798.17
2023-04-12T10:38:35.381Z,99797.35
2023-04-12T10:41:20.254Z,99797.67
2023-04-12T10:43:49.416Z,99799.54
2023-04-12T10:46:52.729Z,99801.16
2023-04-12T10:49:21.029Z,99799.41
2023-04-12T10:52:17.822Z,99800.01
2023-04-12T10:54:45.755Z,99796.98
2023-04-12T10:57:43.148Z,99797.80
2023-04-12T11:00:11.841Z,99794.94
2023-04-12T11:03:07.768Z,99794.27
2023-04-12T11:06:06.484Z,99791.98
2023-04-12T11:08:42.209Z,99793.54
2023-04-12T11:11:22.893Z,99788.91
2023-04-12T11:13:55.931Z,99791.77
2023-04-12T11:16:23.994Z,99789.71
2023-04-12T11:18:54.082Z,99785.91
2023-04-12T11:21:22.710Z,99787.47
2023-04-12T11:23:53.092Z,99784.44
2023-04-12T11:26:22.492Z,99778.64
2023-04-12T11:28:53.531Z,99775.23
2023-04-12T11:31:23.406Z,99774.55
2023-04-12T11:33:51.815Z,99771.13
2023-04-12T11:36:19.932Z,99770.11
2023-04-12T11:38:48.171Z,99772.01
2023-04-12T11:41:16.989Z,99769.61
2023-04-12T11:43:46.282Z,99772.93
2023-04-12T11:46:15.584Z,99770.09
2023-04-12T11:48:46.796Z,99769.08
2023-04-12T11:51:25.038Z,99766.63
2023-04-12T11:53:57.513Z,99768.80
2023-04-12T11:56:27.594Z,99769.06
2023-04-12T11:58:55.767Z,99767.82
2023-04-12T12:01:24.242Z,99761.83
2023-04-12T12:03:52.911Z,99757.31
2023-04-12T12:06:23.067Z,99754.23
2023-04-12T12:08:52.282Z,99751.73
2023-04-12T12:11:21.823Z,99747.23
2023-04-12T12:13:55.253Z,99739.79
2023-04-12T12:16:28.675Z,99737.35
2023-04-12T12:18:57.978Z,99733.54
2023-04-12T12:21:27.494Z,99733.75
2023-04-12T12:23:57.474Z,99729.02
2023-04-12T12:26:28.420Z,99725.11
2023-04-12T12:28:58.020Z,99721.38
2023-04-12T12:31:28.679Z,99711.51
2023-04-12T12:33:59.571Z,99709.70
2023-04-12T12:36:36.465Z,99711.48
2023-04-12T12:39:10.684Z,99711.06
2023-04-12T12:41:40.707Z,99706.39
2023-04-12T12:44:09.103Z,99701.83
2023-04-12T12:49:07.961Z,99696.53
2023-04-12T12:51:36.032Z,99693.48
2023-04-12T12:54:04.001Z,99690.74
2023-04-12T12:56:32.177Z,99687.81
2023-04-12T12:58:59.999Z,99687.39
2023-04-12T13:01:28.320Z,99683.58
2023-04-12T13:03:56.646Z,99677.16
2023-04-12T13:06:28.187Z,99671.09
2023-04-12T13:08:56.206Z,99669.98
2023-04-12T13:11:25.110Z,99665.65
2023-04-12T13:13:52.928Z,99659.63
2023-04-12T13:16:26.140Z,99663.23
2023-04-12T13:18:54.708Z,99658.02
2023-04-12T13:21:23.916Z,99656.63
2023-04-12T13:23:51.909Z,99654.61
2023-04-12T13:26:20.161Z,99652.65
2023-04-12T13:28:48.048Z,99652.29
2023-04-12T13:31:15.933Z,99650.46
2023-04-12T13:33:43.985Z,99650.82
2023-04-12T13:36:11.863Z,99650.42
2023-04-12T13:38:40.428Z,99644.59
2023-04-12T13:41:08.196Z,99644.09
2023-04-12T13:43:36.059Z,99645.60
2023-04-12T13:46:04.174Z,99639.61
2023-04-12T13:48:32.294Z,99636.10
2023-04-12T13:51:00.337Z,99632.48
2023-04-12T13:53:29.288Z,99633.55
2023-04-12T13:55:57.337Z,99632.61
2023-04-12T13:58:26.256Z,99633.59
2023-04-12T14:00:56.262Z,99631.98
2023-04-12T14:03:24.235Z,99626.90
2023-04-12T14:05:52.692Z,99628.89
2023-04-12T14:08:20.913Z,99634.41
2023-04-12T14:10:48.729Z,99629.23
2023-04-12T14:13:16.691Z,99633.17
2023-04-12T14:15:44.555Z,99632.75
2023-04-12T14:18:12.382Z,99630.35
2023-04-12T14:20:40.420Z,99634.75
2023-04-12T14:23:08.367Z,99634.19
2023-04-12T14:25:39.504Z,99633.17
2023-04-12T14:28:07.673Z,99631.05
2023-04-12T14:30:35.565Z,99630.58
2023-04-12T14:33:03.458Z,99632.45
2023-04-12T14:35:31.458Z,99632.52
2023-04-12T14:37:59.236Z,99632.63
2023-04-12T14:40:27.099Z,99637.16
2023-04-12T14:42:57.639Z,99634.02
2023-04-12T14:45:27.709Z,99628.94
2023-04-12T14:47:56.113Z,99634.25
2023-04-12T14:50:24.002Z,99634.60
2023-04-12T14:52:51.830Z,99635.89
2023-04-12T14:55:19.843Z,99635.24
2023-04-12T14:57:47.584Z,99639.56
2023-04-12T15:00:16.452Z,99640.77
2023-04-12T15:02:46.431Z,99641.54
2023-04-12T15:05:14.742Z,99644.30
2023-04-12T15:07:42.647Z,99642.08
2023-04-12T15:10:14.308Z,99640.83
2023-04-12T15:12:42.772Z,99635.84
2023-04-12T15:15:11.323Z,99635.06
2023-04-12T15:17:39.075Z,99631.65
2023-04-12T15:20:12.587Z,99630.52
2023-04-12T15:22:40.575Z,99632.61
2023-04-12T15:25:09.817Z,99629.88
2023-04-12T15:27:38.177Z,99631.15
2023-04-12T15:30:09.816Z,99629.48
2023-04-12T15:32:40.697Z,99628.66
2023-04-12T15:35:25.386Z,99629.18
2023-04-12T15:37:55.614Z,99625.95
2023-04-12T15:40:26.252Z,99627.44
2023-04-12T15:42:54.049Z,99623.59
2023-04-12T15:45:22.296Z,99624.67
2023-04-12T15:47:50.380Z,99625.19
2023-04-12T15:50:19.192Z,99627.28
2023-04-12T15:52:47.683Z,99623.98
2023-04-12T15:55:18.837Z,99621.39
2023-04-12T15:57:47.300Z,99621.92
2023-04-12T16:00:26.301Z,99623.35
2023-04-12T16:02:56.322Z,99622.33
2023-04-12T16:05:24.992Z,99619.96
2023-04-12T16:07:54.207Z,99620.99
2023-04-12T16:10:22.497Z,99619.21
2023-04-12T16:12:52.110Z,99621.42
2023-04-12T16:15:21.266Z,99618.03
2023-04-12T16:17:53.329Z,99612.67
2023-04-12T16:20:22.356Z,99611.30
2023-04-12T16:22:54.636Z,99611.41
2023-04-12T16:25:24.428Z,99614.58
2023-04-12T16:27:52.372Z,99613.32
2023-04-12T16:30:20.464Z,99611.55
2023-04-12T16:32:49.021Z,99617.03
2023-04-12T16:35:16.979Z,99617.33
2023-04-12T16:37:45.982Z,99616.35
2023-04-12T16:40:14.391Z,99619.71
2023-04-12T16:42:43.546Z,99619.60
2023-04-12T16:45:14.578Z,99619.48
2023-04-12T16:47:42.634Z,99625.29
2023-04-12T16:50:12.869Z,99628.03
2023-04-12T16:52:41.849Z,99633.27
2023-04-12T16:55:14.338Z,99636.98
2023-04-12T16:57:43.036Z,99641.55
2023-04-12T17:00:20.894Z,99645.64
2023-04-12T17:02:50.469Z,99642.89
2023-04-12T17:05:19.988Z,99643.98
2023-04-12T17:07:50.048Z,99643.10
2023-04-12T17:10:19.675Z,99639.95
2023-04-12T17:12:50.184Z,99642.75
2023-04-12T17:15:19.281Z,99644.19
2023-04-12T17:17:48.941Z,99641.52
2023-04-12T17:20:19.820Z,99645.23
2023-04-12T17:22:49.229Z,99643.08
2023-04-12T17:25:18.901Z,99643.80
2023-04-12T17:27:48.846Z,99643.56
2023-04-12T17:30:17.844Z,99643.46
2023-04-12T17:32:47.557Z,99644.08
2023-04-12T17:35:17.664Z,99647.55
2023-04-12T17:37:46.987Z,99650.16
2023-04-12T17:40:15.460Z,99650.05
2023-04-12T17:42:44.082Z,99650.43
2023-04-12T17:45:13.943Z,99647.09
2023-04-12T17:47:42.801Z,99644.80
2023-04-12T17:50:11.804Z,99648.25
2023-04-12T17:52:40.050Z,99643.89
2023-04-12T17:55:12.576Z,99644.30
2023-04-12T17:57:41.696Z,99644.71
2023-04-12T18:00:11.973Z,99649.40
2023-04-12T18:02:40.887Z,99650.66
2023-04-12T18:05:09.473Z,99653.60
2023-04-12T18:07:38.351Z,99654.66
2023-04-12T18:10:10.368Z,99655.89
2023-04-12T18:12:38.807Z,99652.70
2023-04-12T18:15:08.511Z,99654.45
2023-04-12T18:17:36.551Z,99652.12
2023-04-12T18:20:09.772Z,99649.77
2023-04-12T18:22:38.471Z,99645.74
2023-04-12T18:25:07.828Z,99646.98
2023-04-12T18:27:35.931Z,99645.65
2023-04-12T18:30:04.953Z,99645.52
2023-04-12T18:32:32.976Z,99646.95
2023-04-12T18:35:00.982Z,99643.05
2023-04-12T18:37:28.928Z,99645.80
2023-04-12T18:39:56.790Z,99646.31
2023-04-12T18:42:24.767Z,99644.11
2023-04-12T18:44:52.727Z,99642.95
2023-04-12T18:47:20.594Z,99642.77
2023-04-12T18:49:48.559Z,99642.11
2023-04-12T18:52:16.856Z,99638.04
2023-04-12T18:54:44.648Z,99638.05
2023-04-12T18:57:14.424Z,99634.65
2023-04-12T18:59:42.540Z,99631.78
2023-04-12T19:02:10.681Z,99632.29
2023-04-12T19:04:45.398Z,99630.10
2023-04-12T19:07:13.281Z,99630.94
2023-04-12T19:09:41.328Z,99632.65
2023-04-12T19:12:09.200Z,99632.64
2023-04-12T19:14:36.932Z,99630.77
2023-04-12T19:17:04.928Z,99632.48
2023-04-12T19:19:32.690Z,99627.23
2023-04-12T19:22:00.654Z,99623.84
2023-04-12T19:24:28.544Z,99622.48
2023-04-12T19:26:56.488Z,99619.77
2023-04-12T19:29:26.272Z,99617.89
2023-04-12T19:31:54.364Z,99615.85
2023-04-12T19:34:23.353Z,99610.41
2023-04-12T19:36:51.230Z,99610.08
2023-04-12T19:39:20.526Z,99609.23
2023-04-12T19:41:49.404Z,99608.54
2023-04-12T19:44:17.298Z,99604.29
2023-04-12T19:46:45.282Z,99604.80
2023-04-12T19:49:13.543Z,99605.30
2023-04-12T19:51:41.498Z,99606.48
2023-04-12T19:54:10.178Z,99607.48
2023-04-12T19:56:38.263Z,99606.94
2023-04-12T19:59:06.734Z,99602.17
2023-04-12T20:01:43.302Z,99602.16
2023-04-12T20:04:11.416Z,99597.59
2023-04-12T20:06:39.576Z,99592.83
2023-04-12T20:09:08.841Z,99593.81
2023-04-12T20:11:38.281Z,99592.77
2023-04-12T20:14:09.626Z,99590.03
2023-04-12T20:16:38.123Z,99589.85
2023-04-12T20:19:06.552Z,99586.73
2023-04-12T20:21:34.947Z,99584.02
2023-04-12T20:24:04.036Z,99582.15
2023-04-12T20:26:31.893Z,99581.12
2023-04-12T20:29:04.931Z,99583.64
2023-04-12T20:31:33.147Z,99581.41
2023-04-12T20:34:01.122Z,99584.95
2023-04-12T20:36:29.813Z,99583.25
2023-04-12T20:38:58.320Z,99581.39
2023-04-12T20:41:26.463Z,99582.88
2023-04-12T20:43:54.422Z,99583.19
2023-04-12T20:46:26.013Z,99581.14
2023-04-12T20:48:56.539Z,99584.82
2023-04-12T20:51:24.776Z,99590.02
2023-04-12T20:53:53.778Z,99587.12
2023-04-12T20:56:21.538Z,99593.48
2023-04-12T20:58:50.012Z,99590.61
2023-04-12T21:01:18.958Z,99588.42
2023-04-12T21:03:47.303Z,99588.61
2023-04-12T21:06:17.086Z,99590.42
2023-04-12T21:08:47.411Z,99592.92
2023-04-12T21:11:15.120Z,99593.06
2023-04-12T21:13:44.676Z,99592.02
2023-04-12T21:16:16.240Z,99591.99
2023-04-12T21:18:45.022Z,99590.60
2023-04-12T21:21:13.005Z,99588.57
2023-04-12T21:23:41.258Z,99587.23
2023-04-12T21:26:09.333Z,99585.21
2023-04-12T21:28:38.632Z,99587.88
2023-04-12T21:31:07.108Z,99586.83
2023-04-12T21:33:36.719Z,99585.10
2023-04-12T21:36:05.956Z,99585.44
2023-04-12T21:38:36.479Z,99582.72
2023-04-12T21:41:09.929Z,99581.02
2023-04-12T21:43:39.408Z,99577.11
2023-04-12T21:46:08.137Z,99575.25
2023-04-12T21:48:36.629Z,99571.19
2023-04-12T21:51:04.772Z,99571.69
2023-04-12T21:53:32.674Z,99572.70
2023-04-12T21:56:01.347Z,99569.64
2023-04-12T21:58:30.221Z,99568.30
2023-04-12T22:00:58.448Z,99568.82
2023-04-12T22:03:26.411Z,99571.14
2023-04-12T22:06:04.445Z,99571.08
2023-04-12T22:08:33.360Z,99576.59
2023-04-12T22:11:01.580Z,99576.79
2023-04-12T22:13:30.791Z,99573.98
2023-04-12T22:16:00.855Z,99573.27
2023-04-12T22:18:28.726Z,99569.88
2023-04-12T22:20:58.018Z,99566.98
2023-04-12T22:23:26.398Z,99566.84
2023-04-12T22:25:58.685Z,99563.10
2023-04-12T22:28:26.532Z,99563.09
2023-04-12T22:30:57.160Z,99562.22
2023-04-12T22:33:25.224Z,99558.31
2023-04-12T22:35:53.083Z,99550.71
2023-04-12T22:38:20.920Z,99550.70
2023-04-12T22:40:48.826Z,99550.02
2023-04-12T22:43:22.369Z,99545.27
2023-04-12T22:45:54.139Z,99541.88
2023-04-12T22:48:25.218Z,99543.89
2023-04-12T22:50:54.620Z,99532.90
2023-04-12T22:53:22.605Z,99533.42
2023-04-12T22:55:53.834Z,99527.34
2023-04-12T22:58:21.777Z,99528.98
2023-04-12T23:00:50.994Z,99526.21
2023-04-12T23:03:20.556Z,99523.48
2023-04-12T23:05:50.384Z,99519.55
2023-04-12T23:08:18.180Z,99513.77
2023-04-12T23:10:46.275Z,99515.09
2023-04-12T23:13:14.116Z,99511.17
2023-04-12T23:15:45.376Z,99511.13
2023-04-12T23:18:13.274Z,99508.27
2023-04-12T23:20:44.928Z,99506.23
2023-04-12T23:23:12.662Z,99501.34
2023-04-12T23:25:41.846Z,99496.93
2023-04-12T23:28:15.747Z,99497.75
2023-04-12T23:30:48.011Z,99492.48
2023-04-12T23:33:18.360Z,99487.38
2023-04-12T23:35:52.620Z,99484.51
2023-04-12T23:38:26.130Z,99483.98
2023-04-12T23:40:54.322Z,99482.97
2023-04-12T23:43:24.656Z,99484.27
2023-04-12T23:45:53.144Z,99481.51
2023-04-12T23:48:22.330Z,99477.27
2023-04-12T23:50:51.390Z,99475.08
2023-04-12T23:53:19.431Z,99473.41
2023-04-12T23:55:49.561Z,99470.20
2023-04-12T23:58:18.650Z,99470.05
